sensor_id;sensor_type;location;lat;lon;timestamp;pressure;altitude;pressure_sealevel;temperature;humidity
65666;BME280;52365;47.464;18.976;2023-08-01T00:00:19;99221.44;;;19.09;60.47
65666;BME280;52365;47.464;18.976;2023-08-01T00:00:40;99230.50;;;19.04;60.73
65666;BME280;52365;47.464;18.976;2023-08-01T00:01:02;99223.25;;;19.20;60.41
65666;BME280;52365;47.464;18.976;2023-08-01T00:01:23;99227.12;;;19.37;59.95
65666;BME280;52365;47.464;18.976;2023-08-01T00:01:44;99228.81;;;19.41;59.74
65666;BME280;52365;47.464;18.976;2023-08-01T00:02:05;99226.72;;;19.33;59.92
65666;BME280;52365;47.464;18.976;2023-08-01T00:02:26;99238.19;;;19.19;60.45
65666;BME280;52365;47.464;18.976;2023-08-01T00:02:47;99231.75;;;19.16;60.53
65666;BME280;52365;47.464;18.976;2023-08-01T00:03:08;99229.88;;;19.11;60.62
65666;BME280;52365;47.464;18.976;2023-08-01T00:03:29;99226.72;;;19.07;60.77
65666;BME280;52365;47.464;18.976;2023-08-01T00:03:50;99229.13;;;19.10;60.76
65666;BME280;52365;47.464;18.976;2023-08-01T00:04:11;99227.56;;;19.15;60.68
65666;BME280;52365;47.464;18.976;2023-08-01T00:04:32;99237.09;;;19.22;60.46
65666;BME280;52365;47.464;18.976;2023-08-01T00:04:53;99228.41;;;19.23;60.31
65666;BME280;52365;47.464;18.976;2023-08-01T00:05:14;99229.44;;;19.20;60.31
65666;BME280;52365;47.464;18.976;2023-08-01T00:05:35;99225.25;;;19.19;60.34
65666;BME280;52365;47.464;18.976;2023-08-01T00:05:56;99231.34;;;19.12;60.61
65666;BME280;52365;47.464;18.976;2023-08-01T00:06:12;99232.28;;;19.01;60.92
65666;BME280;52365;47.464;18.976;2023-08-01T00:06:34;99229.88;;;18.98;61.11
65666;BME280;52365;47.464;18.976;2023-08-01T00:06:55;99221.97;;;18.94;61.24
65666;BME280;52365;47.464;18.976;2023-08-01T00:07:16;99225.00;;;18.91;61.47
65666;BME280;52365;47.464;18.976;2023-08-01T00:07:37;99221.44;;;18.96;61.35
65666;BME280;52365;47.464;18.976;2023-08-01T00:07:58;99228.41;;;18.97;61.29
65666;BME280;52365;47.464;18.976;2023-08-01T00:08:19;99228.59;;;18.99;61.24
65666;BME280;52365;47.464;18.976;2023-08-01T00:08:40;99223.37;;;19.01;61.21
65666;BME280;52365;47.464;18.976;2023-08-01T00:09:01;99226.59;;;18.99;61.22
65666;BME280;52365;47.464;18.976;2023-08-01T00:09:22;99219.12;;;19.00;61.22
65666;BME280;52365;47.464;18.976;2023-08-01T00:09:38;99220.62;;;19.01;61.20
65666;BME280;52365;47.464;18.976;2023-08-01T00:09:59;99222.09;;;19.02;61.20
65666;BME280;52365;47.464;18.976;2023-08-01T00:10:20;99223.97;;;19.07;61.08
65666;BME280;52365;47.464;18.976;2023-08-01T00:10:41;99223.13;;;19.12;60.95
65666;BME280;52365;47.464;18.976;2023-08-01T00:11:02;99222.94;;;19.10;60.93
65666;BME280;52365;47.464;18.976;2023-08-01T00:11:23;99223.69;;;19.10;60.93
65666;BME280;52365;47.464;18.976;2023-08-01T00:11:44;99231.34;;;19.12;60.90
65666;BME280;52365;47.464;18.976;2023-08-01T00:12:05;99219.69;;;19.11;60.86
65666;BME280;52365;47.464;18.976;2023-08-01T00:12:27;99222.59;;;19.13;60.83
65666;BME280;52365;47.464;18.976;2023-08-01T00:12:48;99223.37;;;19.14;60.77
65666;BME280;52365;47.464;18.976;2023-08-01T00:13:04;99221.78;;;19.19;60.62
65666;BME280;52365;47.464;18.976;2023-08-01T00:13:25;99222.72;;;19.21;60.53
65666;BME280;52365;47.464;18.976;2023-08-01T00:13:46;99229.97;;;19.19;60.49
65666;BME280;52365;47.464;18.976;2023-08-01T00:14:07;99225.25;;;19.19;60.43
65666;BME280;52365;47.464;18.976;2023-08-01T00:14:28;99223.37;;;19.14;60.56
65666;BME280;52365;47.464;18.976;2023-08-01T00:14:48;99225.44;;;19.08;60.72
65666;BME280;52365;47.464;18.976;2023-08-01T00:15:10;99229.22;;;19.05;60.81
65666;BME280;52365;47.464;18.976;2023-08-01T00:15:31;99217.91;;;19.01;60.99
65666;BME280;52365;47.464;18.976;2023-08-01T00:15:52;99220.09;;;19.02;61.00
65666;BME280;52365;47.464;18.976;2023-08-01T00:16:13;99218.84;;;19.03;60.97
65666;BME280;52365;47.464;18.976;2023-08-01T00:16:34;99222.19;;;19.09;60.85
65666;BME280;52365;47.464;18.976;2023-08-01T00:16:55;99223.97;;;19.20;60.58
65666;BME280;52365;47.464;18.976;2023-08-01T00:17:16;99226.09;;;19.14;60.81
65666;BME280;52365;47.464;18.976;2023-08-01T00:17:37;99226.28;;;19.16;60.81
65666;BME280;52365;47.464;18.976;2023-08-01T00:17:58;99225.97;;;19.20;60.72
65666;BME280;52365;47.464;18.976;2023-08-01T00:18:19;99225.25;;;19.19;60.71
65666;BME280;52365;47.464;18.976;2023-08-01T00:18:40;99215.78;;;19.20;60.76
65666;BME280;52365;47.464;18.976;2023-08-01T00:19:01;99222.72;;;19.21;60.79
65666;BME280;52365;47.464;18.976;2023-08-01T00:19:22;99224.53;;;19.19;60.89
65666;BME280;52365;47.464;18.976;2023-08-01T00:19:43;99225.66;;;19.23;60.86
65666;BME280;52365;47.464;18.976;2023-08-01T00:20:05;99226.28;;;19.29;60.68
65666;BME280;52365;47.464;18.976;2023-08-01T00:20:26;99221.34;;;19.28;60.62
65666;BME280;52365;47.464;18.976;2023-08-01T00:20:47;99223.44;;;19.35;60.52
65666;BME280;52365;47.464;18.976;2023-08-01T00:21:08;99224.50;;;19.45;60.20
65666;BME280;52365;47.464;18.976;2023-08-01T00:21:32;99229.13;;;19.50;60.04
65666;BME280;52365;47.464;18.976;2023-08-01T00:21:54;99224.28;;;19.43;60.10
65666;BME280;52365;47.464;18.976;2023-08-01T00:22:15;99224.50;;;19.45;60.13
65666;BME280;52365;47.464;18.976;2023-08-01T00:22:36;99216.81;;;19.44;60.10
65666;BME280;52365;47.464;18.976;2023-08-01T00:22:57;99224.41;;;19.37;60.26
65666;BME280;52365;47.464;18.976;2023-08-01T00:23:18;99216.19;;;19.37;60.35
65666;BME280;52365;47.464;18.976;2023-08-01T00:23:39;99219.56;;;19.30;60.51
65666;BME280;52365;47.464;18.976;2023-08-01T00:24:00;99221.97;;;19.34;60.54
65666;BME280;52365;47.464;18.976;2023-08-01T00:24:21;99224.28;;;19.30;60.58
65666;BME280;52365;47.464;18.976;2023-08-01T00:24:42;99225.56;;;19.29;60.64
65666;BME280;52365;47.464;18.976;2023-08-01T00:25:03;99226.47;;;19.31;60.60
65666;BME280;52365;47.464;18.976;2023-08-01T00:25:24;99222.59;;;19.27;60.72
65666;BME280;52365;47.464;18.976;2023-08-01T00:25:45;99227.75;;;19.17;61.05
65666;BME280;52365;47.464;18.976;2023-08-01T00:26:12;99227.34;;;19.13;61.26
65666;BME280;52365;47.464;18.976;2023-08-01T00:26:33;99222.09;;;19.02;61.76
65666;BME280;52365;47.464;18.976;2023-08-01T00:26:54;99221.44;;;18.96;62.00
65666;BME280;52365;47.464;18.976;2023-08-01T00:27:16;99224.50;;;18.92;62.06
65666;BME280;52365;47.464;18.976;2023-08-01T00:27:37;99225.97;;;18.93;62.07
65666;BME280;52365;47.464;18.976;2023-08-01T00:27:58;99232.16;;;18.94;62.09
65666;BME280;52365;47.464;18.976;2023-08-01T00:28:19;99225.31;;;18.87;62.20
65666;BME280;52365;47.464;18.976;2023-08-01T00:28:40;99227.12;;;18.84;62.32
65666;BME280;52365;47.464;18.976;2023-08-01T00:29:01;99228.28;;;18.89;62.26
65666;BME280;52365;47.464;18.976;2023-08-01T00:29:22;99222.28;;;18.91;62.20
65666;BME280;52365;47.464;18.976;2023-08-01T00:29:44;99219.56;;;18.91;62.16
65666;BME280;52365;47.464;18.976;2023-08-01T00:30:07;99226.28;;;18.90;62.15
65666;BME280;52365;47.464;18.976;2023-08-01T00:30:28;99224.19;;;18.96;62.00
65666;BME280;52365;47.464;18.976;2023-08-01T00:30:49;99223.13;;;18.99;61.85
65666;BME280;52365;47.464;18.976;2023-08-01T00:31:10;99225.88;;;18.99;61.75
65666;BME280;52365;47.464;18.976;2023-08-01T00:31:31;99221.44;;;19.09;61.51
65666;BME280;52365;47.464;18.976;2023-08-01T00:31:52;99225.13;;;18.98;61.55
65666;BME280;52365;47.464;18.976;2023-08-01T00:32:13;99226.28;;;18.90;61.85
65666;BME280;52365;47.464;18.976;2023-08-01T00:32:35;99221.78;;;18.92;61.91
65666;BME280;52365;47.464;18.976;2023-08-01T00:32:56;99224.50;;;18.92;61.86
65666;BME280;52365;47.464;18.976;2023-08-01T00:33:12;99218.50;;;18.94;61.79
65666;BME280;52365;47.464;18.976;2023-08-01T00:33:34;99229.13;;;18.97;61.68
65666;BME280;52365;47.464;18.976;2023-08-01T00:33:55;99227.44;;;19.07;61.41
65666;BME280;52365;47.464;18.976;2023-08-01T00:34:16;99223.56;;;19.29;60.86
65666;BME280;52365;47.464;18.976;2023-08-01T00:34:37;99222.69;;;19.48;60.29
65666;BME280;52365;47.464;18.976;2023-08-01T00:34:58;99228.25;;;19.55;59.94
65666;BME280;52365;47.464;18.976;2023-08-01T00:35:19;99237.81;;;19.62;59.69
65666;BME280;52365;47.464;18.976;2023-08-01T00:35:40;99229.31;;;19.66;59.48
65666;BME280;52365;47.464;18.976;2023-08-01T00:36:02;99230.25;;;19.55;59.62
65666;BME280;52365;47.464;18.976;2023-08-01T00:36:23;99229.53;;;19.54;59.73
65666;BME280;52365;47.464;18.976;2023-08-01T00:36:44;99225.84;;;19.52;59.75
65666;BME280;52365;47.464;18.976;2023-08-01T00:37:05;99228.81;;;19.41;59.91
65666;BME280;52365;47.464;18.976;2023-08-01T00:37:26;99227.88;;;19.25;60.44
65666;BME280;52365;47.464;18.976;2023-08-01T00:37:47;99223.37;;;19.14;60.77
65666;BME280;52365;47.464;18.976;2023-08-01T00:38:07;99221.03;;;19.05;61.12
65666;BME280;52365;47.464;18.976;2023-08-01T00:38:28;99224.81;;;19.02;61.31
65666;BME280;52365;47.464;18.976;2023-08-01T00:38:50;99221.78;;;19.05;61.30
65666;BME280;52365;47.464;18.976;2023-08-01T00:39:11;99219.25;;;19.07;61.24
65666;BME280;52365;47.464;18.976;2023-08-01T00:39:32;99212.75;;;19.10;61.13
65666;BME280;52365;47.464;18.976;2023-08-01T00:39:53;99216.53;;;19.07;61.14
65666;BME280;52365;47.464;18.976;2023-08-01T00:40:14;99221.25;;;19.07;61.19
65666;BME280;52365;47.464;18.976;2023-08-01T00:40:32;99222.81;;;19.02;61.29
65666;BME280;52365;47.464;18.976;2023-08-01T00:40:54;99218.50;;;18.94;61.48
65666;BME280;52365;47.464;18.976;2023-08-01T00:41:15;99222.81;;;18.89;61.65
65666;BME280;52365;47.464;18.976;2023-08-01T00:41:36;99219.34;;;18.89;61.77
65666;BME280;52365;47.464;18.976;2023-08-01T00:41:57;99212.31;;;18.80;62.29
65666;BME280;52365;47.464;18.976;2023-08-01T00:42:18;99219.53;;;18.77;62.37
65666;BME280;52365;47.464;18.976;2023-08-01T00:42:39;99215.53;;;18.78;62.37
65666;BME280;52365;47.464;18.976;2023-08-01T00:43:00;99212.91;;;18.73;62.75
65666;BME280;52365;47.464;18.976;2023-08-01T00:43:21;99216.63;;;18.75;62.78
65666;BME280;52365;47.464;18.976;2023-08-01T00:43:42;99217.06;;;18.93;62.32
65666;BME280;52365;47.464;18.976;2023-08-01T00:44:03;99216.50;;;18.94;62.14
65666;BME280;52365;47.464;18.976;2023-08-01T00:44:24;99217.88;;;18.87;62.26
65666;BME280;52365;47.464;18.976;2023-08-01T00:44:45;99222.09;;;18.89;62.23
65666;BME280;52365;47.464;18.976;2023-08-01T00:45:09;99212.00;;;18.83;62.36
65666;BME280;52365;47.464;18.976;2023-08-01T00:45:30;99217.66;;;18.85;62.37
65666;BME280;52365;47.464;18.976;2023-08-01T00:45:53;99210.22;;;18.86;62.33
65666;BME280;52365;47.464;18.976;2023-08-01T00:46:15;99212.22;;;18.85;62.33
65666;BME280;52365;47.464;18.976;2023-08-01T00:46:36;99210.19;;;18.73;62.70
65666;BME280;52365;47.464;18.976;2023-08-01T00:46:57;99212.66;;;18.57;63.20
65666;BME280;52365;47.464;18.976;2023-08-01T00:47:18;99211.19;;;18.56;63.28
65666;BME280;52365;47.464;18.976;2023-08-01T00:47:39;99213.41;;;18.58;63.37
65666;BME280;52365;47.464;18.976;2023-08-01T00:48:00;99201.84;;;18.65;63.17
65666;BME280;52365;47.464;18.976;2023-08-01T00:48:21;99207.13;;;18.63;63.23
65666;BME280;52365;47.464;18.976;2023-08-01T00:48:43;99210.44;;;18.56;63.64
65666;BME280;52365;47.464;18.976;2023-08-01T00:49:04;99201.78;;;18.38;64.31
65666;BME280;52365;47.464;18.976;2023-08-01T00:49:25;99206.72;;;18.08;65.04
65666;BME280;52365;47.464;18.976;2023-08-01T00:49:46;99211.69;;;17.91;65.67
65666;BME280;52365;47.464;18.976;2023-08-01T00:50:02;99208.53;;;17.86;66.14
65666;BME280;52365;47.464;18.976;2023-08-01T00:50:23;99216.47;;;18.03;65.99
65666;BME280;52365;47.464;18.976;2023-08-01T00:50:45;99215.28;;;18.18;65.65
65666;BME280;52365;47.464;18.976;2023-08-01T00:51:06;99205.69;;;18.43;64.80
65666;BME280;52365;47.464;18.976;2023-08-01T00:51:31;99208.56;;;18.51;64.14
65666;BME280;52365;47.464;18.976;2023-08-01T00:51:52;99216.06;;;18.31;64.40
65666;BME280;52365;47.464;18.976;2023-08-01T00:52:13;99213.38;;;18.45;64.30
65666;BME280;52365;47.464;18.976;2023-08-01T00:52:34;99213.09;;;18.61;63.68
65666;BME280;52365;47.464;18.976;2023-08-01T00:52:51;99209.84;;;18.63;63.43
65666;BME280;52365;47.464;18.976;2023-08-01T00:53:13;99202.50;;;18.58;63.41
65666;BME280;52365;47.464;18.976;2023-08-01T00:53:35;99206.84;;;18.48;63.69
65666;BME280;52365;47.464;18.976;2023-08-01T00:53:56;99210.66;;;18.45;63.89
65666;BME280;52365;47.464;18.976;2023-08-01T00:54:17;99204.56;;;18.52;63.74
65666;BME280;52365;47.464;18.976;2023-08-01T00:54:38;99208.97;;;18.55;63.61
65666;BME280;52365;47.464;18.976;2023-08-01T00:54:59;99203.69;;;18.44;64.14
65666;BME280;52365;47.464;18.976;2023-08-01T00:55:21;99197.50;;;18.43;64.23
65666;BME280;52365;47.464;18.976;2023-08-01T00:55:43;99203.31;;;18.53;63.90
65666;BME280;52365;47.464;18.976;2023-08-01T00:56:05;99202.50;;;18.58;63.68
65666;BME280;52365;47.464;18.976;2023-08-01T00:56:26;99202.50;;;18.58;63.58
65666;BME280;52365;47.464;18.976;2023-08-01T00:56:47;99191.66;;;18.52;63.60
65666;BME280;52365;47.464;18.976;2023-08-01T00:57:08;99197.34;;;18.54;63.59
65666;BME280;52365;47.464;18.976;2023-08-01T00:57:29;99190.59;;;18.55;63.60
65666;BME280;52365;47.464;18.976;2023-08-01T00:57:51;99195.63;;;18.70;63.27
65666;BME280;52365;47.464;18.976;2023-08-01T00:58:13;99190.63;;;18.69;63.18
65666;BME280;52365;47.464;18.976;2023-08-01T00:58:34;99189.28;;;18.62;63.30
65666;BME280;52365;47.464;18.976;2023-08-01T00:58:55;99189.03;;;18.60;63.39
65666;BME280;52365;47.464;18.976;2023-08-01T00:59:16;99192.63;;;18.68;63.29
65666;BME280;52365;47.464;18.976;2023-08-01T00:59:37;99191.63;;;18.71;63.19
65666;BME280;52365;47.464;18.976;2023-08-01T00:59:58;99193.81;;;18.73;63.06
65666;BME280;52365;47.464;18.976;2023-08-01T01:00:19;99196.09;;;18.69;63.17
65666;BME280;52365;47.464;18.976;2023-08-01T01:00:40;99198.75;;;18.74;63.15
65666;BME280;52365;47.464;18.976;2023-08-01T01:01:01;99192.25;;;18.77;62.99
65666;BME280;52365;47.464;18.976;2023-08-01T01:01:24;99199.50;;;18.75;63.03
65666;BME280;52365;47.464;18.976;2023-08-01T01:01:45;99190.78;;;18.76;63.00
65666;BME280;52365;47.464;18.976;2023-08-01T01:02:06;99191.81;;;18.73;63.03
65666;BME280;52365;47.464;18.976;2023-08-01T01:02:27;99187.63;;;18.85;62.84
65666;BME280;52365;47.464;18.976;2023-08-01T01:02:48;99190.69;;;18.95;62.50
65666;BME280;52365;47.464;18.976;2023-08-01T01:03:09;99189.53;;;18.91;62.47
65666;BME280;52365;47.464;18.976;2023-08-01T01:03:30;99192.06;;;18.89;62.52
65666;BME280;52365;47.464;18.976;2023-08-01T01:03:52;99185.53;;;18.92;62.53
65666;BME280;52365;47.464;18.976;2023-08-01T01:04:13;99193.84;;;18.99;62.32
65666;BME280;52365;47.464;18.976;2023-08-01T01:04:34;99186.91;;;19.11;62.00
65666;BME280;52365;47.464;18.976;2023-08-01T01:04:55;99182.59;;;19.16;61.77
65666;BME280;52365;47.464;18.976;2023-08-01T01:05:16;99186.59;;;19.15;61.74
65666;BME280;52365;47.464;18.976;2023-08-01T01:05:41;99181.12;;;19.15;61.76
65666;BME280;52365;47.464;18.976;2023-08-01T01:06:12;99188.06;;;19.16;61.66
65666;BME280;52365;47.464;18.976;2023-08-01T01:06:51;99192.13;;;19.09;61.88
65666;BME280;52365;47.464;18.976;2023-08-01T01:07:14;99198.13;;;19.21;61.66
65666;BME280;52365;47.464;18.976;2023-08-01T01:07:36;99179.00;;;19.21;61.52
65666;BME280;52365;47.464;18.976;2023-08-01T01:07:58;99184.28;;;19.19;61.61
65666;BME280;52365;47.464;18.976;2023-08-01T01:08:19;99182.78;;;19.31;61.34
65666;BME280;52365;47.464;18.976;2023-08-01T01:08:40;99185.72;;;19.33;61.13
65666;BME280;52365;47.464;18.976;2023-08-01T01:09:01;99180.66;;;19.51;60.70
65666;BME280;52365;47.464;18.976;2023-08-01T01:09:28;99189.16;;;19.60;60.32
65666;BME280;52365;47.464;18.976;2023-08-01T01:09:50;99187.91;;;19.61;60.13
65666;BME280;52365;47.464;18.976;2023-08-01T01:10:11;99183.78;;;19.55;60.29
65666;BME280;52365;47.464;18.976;2023-08-01T01:10:32;99185.09;;;19.41;60.58
65666;BME280;52365;47.464;18.976;2023-08-01T01:10:53;99184.87;;;19.25;61.02
65666;BME280;52365;47.464;18.976;2023-08-01T01:11:14;99181.97;;;19.10;61.48
65666;BME280;52365;47.464;18.976;2023-08-01T01:11:30;99180.81;;;18.92;62.13
65666;BME280;52365;47.464;18.976;2023-08-01T01:11:51;99177.97;;;18.84;62.47
65666;BME280;52365;47.464;18.976;2023-08-01T01:12:07;99177.44;;;18.73;62.91
65666;BME280;52365;47.464;18.976;2023-08-01T01:12:28;99181.28;;;18.64;63.25
65666;BME280;52365;47.464;18.976;2023-08-01T01:12:49;99188.38;;;18.41;63.94
65666;BME280;52365;47.464;18.976;2023-08-01T01:13:11;99173.62;;;18.17;64.86
65666;BME280;52365;47.464;18.976;2023-08-01T01:13:31;99177.69;;;18.10;65.36
65666;BME280;52365;47.464;18.976;2023-08-01T01:13:52;99182.22;;;18.21;65.27
65666;BME280;52365;47.464;18.976;2023-08-01T01:14:13;99180.66;;;18.26;65.09
65666;BME280;52365;47.464;18.976;2023-08-01T01:14:34;99183.22;;;18.37;64.78
65666;BME280;52365;47.464;18.976;2023-08-01T01:14:55;99177.69;;;18.43;64.48
65666;BME280;52365;47.464;18.976;2023-08-01T01:15:16;99173.28;;;18.40;64.47
65666;BME280;52365;47.464;18.976;2023-08-01T01:15:37;99188.16;;;18.38;64.48
65666;BME280;52365;47.464;18.976;2023-08-01T01:15:58;99191.75;;;18.47;64.30
65666;BME280;52365;47.464;18.976;2023-08-01T01:16:20;99186.72;;;18.51;64.13
65666;BME280;52365;47.464;18.976;2023-08-01T01:16:41;99177.50;;;18.54;63.97
65666;BME280;52365;47.464;18.976;2023-08-01T01:17:02;99192.59;;;18.55;63.92
65666;BME280;52365;47.464;18.976;2023-08-01T01:17:23;99185.25;;;18.50;64.02
65666;BME280;52365;47.464;18.976;2023-08-01T01:17:44;99181.78;;;18.49;64.07
65666;BME280;52365;47.464;18.976;2023-08-01T01:18:05;99183.78;;;18.49;64.13
65666;BME280;52365;47.464;18.976;2023-08-01T01:18:26;99185.37;;;18.57;63.95
65666;BME280;52365;47.464;18.976;2023-08-01T01:18:47;99181.97;;;18.70;63.64
65666;BME280;52365;47.464;18.976;2023-08-01T01:19:09;99182.06;;;18.78;63.34
65666;BME280;52365;47.464;18.976;2023-08-01T01:19:30;99184.28;;;18.79;63.22
65666;BME280;52365;47.464;18.976;2023-08-01T01:19:51;99185.31;;;18.76;63.29
65666;BME280;52365;47.464;18.976;2023-08-01T01:20:12;99180.41;;;18.75;63.35
65666;BME280;52365;47.464;18.976;2023-08-01T01:20:36;99178.03;;;18.66;63.67
65666;BME280;52365;47.464;18.976;2023-08-01T01:20:57;99177.81;;;18.50;64.23
65666;BME280;52365;47.464;18.976;2023-08-01T01:21:31;99178.22;;;18.41;64.79
65666;BME280;52365;47.464;18.976;2023-08-01T01:22:18;99184.06;;;18.32;65.11
65666;BME280;52365;47.464;18.976;2023-08-01T01:22:40;99180.63;;;18.45;64.86
65666;BME280;52365;47.464;18.976;2023-08-01T01:23:04;99178.69;;;18.72;64.01
65666;BME280;52365;47.464;18.976;2023-08-01T01:23:26;99182.72;;;18.84;63.38
65666;BME280;52365;47.464;18.976;2023-08-01T01:23:48;99180.06;;;18.92;63.06
65666;BME280;52365;47.464;18.976;2023-08-01T01:24:11;99180.91;;;19.00;62.67
65666;BME280;52365;47.464;18.976;2023-08-01T01:24:35;99185.94;;;19.09;62.36
65666;BME280;52365;47.464;18.976;2023-08-01T01:24:57;99178.69;;;19.25;61.94
65666;BME280;52365;47.464;18.976;2023-08-01T01:25:20;99180.78;;;19.32;61.59
65666;BME280;52365;47.464;18.976;2023-08-01T01:25:41;99178.59;;;19.17;61.70
65666;BME280;52365;47.464;18.976;2023-08-01T01:26:04;99170.41;;;19.04;62.11
65666;BME280;52365;47.464;18.976;2023-08-01T01:26:27;99176.53;;;18.97;62.49
65666;BME280;52365;47.464;18.976;2023-08-01T01:26:49;99179.25;;;18.83;62.84
65666;BME280;52365;47.464;18.976;2023-08-01T01:27:11;99172.53;;;18.84;63.09
65666;BME280;52365;47.464;18.976;2023-08-01T01:27:34;99169.91;;;18.92;62.90
65666;BME280;52365;47.464;18.976;2023-08-01T01:27:56;99171.56;;;18.95;62.78
65666;BME280;52365;47.464;18.976;2023-08-01T01:28:19;99172.72;;;18.86;62.92
65666;BME280;52365;47.464;18.976;2023-08-01T01:28:41;99166.09;;;18.82;63.12
65666;BME280;52365;47.464;18.976;2023-08-01T01:29:04;99168.50;;;18.72;63.38
65666;BME280;52365;47.464;18.976;2023-08-01T01:29:27;99168.06;;;18.68;63.65
65666;BME280;52365;47.464;18.976;2023-08-01T01:29:48;99171.94;;;18.59;63.91
65666;BME280;52365;47.464;18.976;2023-08-01T01:30:10;99164.25;;;18.45;64.37
65666;BME280;52365;47.464;18.976;2023-08-01T01:30:32;99163.94;;;18.35;64.69
65666;BME280;52365;47.464;18.976;2023-08-01T01:30:54;99160.25;;;18.32;64.89
65666;BME280;52365;47.464;18.976;2023-08-01T01:31:16;99160.69;;;18.36;64.88
65666;BME280;52365;47.464;18.976;2023-08-01T01:31:37;99163.53;;;18.44;64.72
65666;BME280;52365;47.464;18.976;2023-08-01T01:32:00;99161.53;;;18.45;64.61
65666;BME280;52365;47.464;18.976;2023-08-01T01:32:22;99163.94;;;18.35;64.67
65666;BME280;52365;47.464;18.976;2023-08-01T01:32:44;99161.31;;;18.43;64.66
65666;BME280;52365;47.464;18.976;2023-08-01T01:33:05;99169.81;;;18.52;64.42
65666;BME280;52365;47.464;18.976;2023-08-01T01:33:27;99162.69;;;18.49;64.37
65666;BME280;52365;47.464;18.976;2023-08-01T01:33:43;99166.75;;;18.43;64.52
65666;BME280;52365;47.464;18.976;2023-08-01T01:34:04;99162.56;;;18.42;64.64
65666;BME280;52365;47.464;18.976;2023-08-01T01:34:26;99166.12;;;18.36;64.87
65666;BME280;52365;47.464;18.976;2023-08-01T01:34:44;99165.72;;;18.46;64.65
65666;BME280;52365;47.464;18.976;2023-08-01T01:35:05;99159.53;;;18.45;64.62
65666;BME280;52365;47.464;18.976;2023-08-01T01:35:26;99161.72;;;18.47;64.58
65666;BME280;52365;47.464;18.976;2023-08-01T01:35:47;99163.72;;;18.46;64.60
65666;BME280;52365;47.464;18.976;2023-08-01T01:36:08;99166.75;;;18.43;64.67
65666;BME280;52365;47.464;18.976;2023-08-01T01:36:29;99162.56;;;18.42;64.74
65666;BME280;52365;47.464;18.976;2023-08-01T01:36:51;99171.38;;;18.48;64.69
65666;BME280;52365;47.464;18.976;2023-08-01T01:37:11;99165.31;;;18.55;64.48
65666;BME280;52365;47.464;18.976;2023-08-01T01:37:32;99175.19;;;18.58;64.41
65666;BME280;52365;47.464;18.976;2023-08-01T01:37:53;99168.47;;;18.59;64.31
65666;BME280;52365;47.464;18.976;2023-08-01T01:38:15;99167.75;;;18.58;64.27
65666;BME280;52365;47.464;18.976;2023-08-01T01:38:36;99167.09;;;18.52;64.37
65666;BME280;52365;47.464;18.976;2023-08-01T01:38:57;99164.47;;;18.47;64.60
65666;BME280;52365;47.464;18.976;2023-08-01T01:39:18;99172.53;;;18.52;64.60
65666;BME280;52365;47.464;18.976;2023-08-01T01:39:39;99169.63;;;18.50;64.60
65666;BME280;52365;47.464;18.976;2023-08-01T01:40:00;99165.84;;;18.53;64.56
65666;BME280;52365;47.464;18.976;2023-08-01T01:40:21;99169.50;;;18.56;64.45
65666;BME280;52365;47.464;18.976;2023-08-01T01:40:42;99163.75;;;18.59;64.32
65666;BME280;52365;47.464;18.976;2023-08-01T01:41:03;99172.16;;;18.61;64.19
65666;BME280;52365;47.464;18.976;2023-08-01T01:41:24;99167.09;;;18.52;64.34
65666;BME280;52365;47.464;18.976;2023-08-01T01:41:46;99163.44;;;18.50;64.45
65666;BME280;52365;47.464;18.976;2023-08-01T01:42:07;99168.47;;;18.46;64.61
65666;BME280;52365;47.464;18.976;2023-08-01T01:42:29;99170.84;;;18.36;65.04
65666;BME280;52365;47.464;18.976;2023-08-01T01:42:50;99173.25;;;18.26;65.45
65666;BME280;52365;47.464;18.976;2023-08-01T01:43:11;99165.06;;;18.26;65.51
65666;BME280;52365;47.464;18.976;2023-08-01T01:43:32;99173.66;;;18.30;65.43
65666;BME280;52365;47.464;18.976;2023-08-01T01:43:53;99162.44;;;18.34;65.34
65666;BME280;52365;47.464;18.976;2023-08-01T01:44:14;99162.13;;;18.37;65.21
65666;BME280;52365;47.464;18.976;2023-08-01T01:44:35;99167.41;;;18.35;65.17
65666;BME280;52365;47.464;18.976;2023-08-01T01:44:56;99166.94;;;18.18;65.61
65666;BME280;52365;47.464;18.976;2023-08-01T01:45:17;99165.78;;;17.95;66.23
65666;BME280;52365;47.464;18.976;2023-08-01T01:45:37;99165.34;;;17.91;66.84
65666;BME280;52365;47.464;18.976;2023-08-01T01:45:58;99166.09;;;17.91;67.02
65666;BME280;52365;47.464;18.976;2023-08-01T01:46:19;99168.31;;;17.93;67.15
65666;BME280;52365;47.464;18.976;2023-08-01T01:46:40;99168.38;;;17.87;67.39
65666;BME280;52365;47.464;18.976;2023-08-01T01:47:01;99164.09;;;17.92;67.28
65666;BME280;52365;47.464;18.976;2023-08-01T01:47:23;99160.03;;;17.98;67.08
65666;BME280;52365;47.464;18.976;2023-08-01T01:47:44;99170.63;;;18.02;66.89
65666;BME280;52365;47.464;18.976;2023-08-01T01:48:05;99155.44;;;17.74;67.43
65666;BME280;52365;47.464;18.976;2023-08-01T01:48:26;99159.97;;;17.66;67.75
65666;BME280;52365;47.464;18.976;2023-08-01T01:48:47;99164.06;;;17.78;67.75
65666;BME280;52365;47.464;18.976;2023-08-01T01:49:08;99164.31;;;17.94;67.31
65666;BME280;52365;47.464;18.976;2023-08-01T01:49:29;99165.41;;;18.04;66.89
65666;BME280;52365;47.464;18.976;2023-08-01T01:49:50;99164.09;;;18.24;66.27
65666;BME280;52365;47.464;18.976;2023-08-01T01:50:11;99155.53;;;18.33;65.81
65666;BME280;52365;47.464;18.976;2023-08-01T01:50:32;99150.28;;;18.35;65.51
65666;BME280;52365;47.464;18.976;2023-08-01T01:50:53;99157.72;;;18.34;65.47
65666;BME280;52365;47.464;18.976;2023-08-01T01:51:14;99155.37;;;18.25;65.56
65666;BME280;52365;47.464;18.976;2023-08-01T01:51:30;99147.75;;;18.24;65.72
65666;BME280;52365;47.464;18.976;2023-08-01T01:51:51;99151.00;;;18.22;65.82